CheckWX is a tool to help pilots better visualize weather data.  It is not intended as a substitute for an official pre-flight weather briefing.

10:09:42 UTC

CYDF TAF
Deer Lake Airport
Deer Lake, Canada
TAF CYDF 260738Z 2608/2620 VRB03KT P6SM SCT210 TEMPO 2608/2612 5SM BR FM261200 VRB03KT P6SM SKC BECMG 2612/2614 19005KT SCT050 RMK NXT FCST BY 261400Z

Jun-26@
08:00 UTC

Jun-26 @ 08:00 UTC

Jun-26@
12:00 UTC

Jun-26 @ 12:00 UTC

TAF CYDF 260738Z 2608/2620 VRB03KT P6SM SCT210
Wind
  • Variable at 3 KTS
Cloud Levels
  • Scattered at 21,000' AGL

Jun-26@
08:00 UTC

Jun-26 @ 08:00 UTC

Jun-26@
12:00 UTC

Jun-26 @ 12:00 UTC

TEMPO 2608/2612 5SM BR

Temporary

Temporary Changes expected for less than half the time period

Conditions
Mist

Jun-26@
12:00 UTC

Jun-26 @ 12:00 UTC

Jun-26@
20:00 UTC

Jun-26 @ 20:00 UTC

BECMG 2612/2614 19005KT SCT050 RMK NXT FCST BY 261400Z

Becoming

Becoming Conditions expected by Wed, Jun 26, 2019 @ 14:00 UTC

Wind
  • 190° at 5 KTS
Cloud Levels
  • Scattered at 5,000' AGL

Jun-26@
12:00 UTC

Jun-26 @ 12:00 UTC

Jun-26@
20:00 UTC

Jun-26 @ 20:00 UTC

FM261200 VRB03KT P6SM SKC

From

From Standard forecast or significant change

Wind
  • Variable at 3 KTS
Cloud Levels
  • Clear skies